<?xml version="1.0" encoding="UTF-8" standalone="no" ?>
<gpx xmlns="http://www.topografix.com/GPX/1/1" xmlns:xsi="http://www.w3.org/2001/XMLSchema-instance" xsi:schemaLocation="http://www.topografix.com/GPX/1/1 http://www.topografix.com/GPX/1/1/gpx.xsd" version="1.1" creator="VisuGPX - https://www.visugpx.com">
  <metadata>
    <name>Chauve 12/12</name>
    <desc><![CDATA[Ti chauve pour boucler le we!]]></desc>
  </metadata>
  <trk>
    <name><![CDATA[Chauve 12/12]]></name>
    <desc><![CDATA[(null)]]></desc>
    <trkseg>
      <trkpt lat="43.72936" lon="7.27854">
        <ele>155.1</ele>
        <time>2010-12-12T14:29:20Z</time>
      </trkpt>
      <trkpt lat="43.72936" lon="7.27854">
        <ele>155.1</ele>
        <time>2010-12-12T14:29:25Z</time>
      </trkpt>
      <trkpt lat="43.72928" lon="7.27822">
        <ele>213</ele>
        <time>2010-12-12T14:29:33Z</time>
      </trkpt>
      <trkpt lat="43.72939" lon="7.27803">
        <ele>202</ele>
        <time>2010-12-12T14:29:43Z</time>
      </trkpt>
      <trkpt lat="43.72961" lon="7.27681">
        <ele>207</ele>
        <time>2010-12-12T14:30:18Z</time>
      </trkpt>
      <trkpt lat="43.73041" lon="7.27617">
        <ele>211</ele>
        <time>2010-12-12T14:30:43Z</time>
      </trkpt>
      <trkpt lat="43.73128" lon="7.27575">
        <ele>211</ele>
        <time>2010-12-12T14:30:58Z</time>
      </trkpt>
      <trkpt lat="43.73133" lon="7.27574">
        <ele>211</ele>
        <time>2010-12-12T14:30:59Z</time>
      </trkpt>
      <trkpt lat="43.73225" lon="7.2759">
        <ele>215</ele>
        <time>2010-12-12T14:31:18Z</time>
      </trkpt>
      <trkpt lat="43.73304" lon="7.27655">
        <ele>217</ele>
        <time>2010-12-12T14:31:39Z</time>
      </trkpt>
      <trkpt lat="43.73308" lon="7.27662">
        <ele>217</ele>
        <time>2010-12-12T14:31:40Z</time>
      </trkpt>
      <trkpt lat="43.73356" lon="7.2777">
        <ele>219</ele>
        <time>2010-12-12T14:32:08Z</time>
      </trkpt>
      <trkpt lat="43.73421" lon="7.27833">
        <ele>224</ele>
        <time>2010-12-12T14:32:36Z</time>
      </trkpt>
      <trkpt lat="43.73507" lon="7.27876">
        <ele>228</ele>
        <time>2010-12-12T14:33:14Z</time>
      </trkpt>
      <trkpt lat="43.73591" lon="7.27925">
        <ele>237</ele>
        <time>2010-12-12T14:33:56Z</time>
      </trkpt>
      <trkpt lat="43.73637" lon="7.27951">
        <ele>242</ele>
        <time>2010-12-12T14:34:20Z</time>
      </trkpt>
      <trkpt lat="43.73719" lon="7.27896">
        <ele>251</ele>
        <time>2010-12-12T14:35:04Z</time>
      </trkpt>
      <trkpt lat="43.73803" lon="7.27846">
        <ele>257</ele>
        <time>2010-12-12T14:35:45Z</time>
      </trkpt>
      <trkpt lat="43.73877" lon="7.27808">
        <ele>262</ele>
        <time>2010-12-12T14:36:21Z</time>
      </trkpt>
      <trkpt lat="43.73955" lon="7.27744">
        <ele>273</ele>
        <time>2010-12-12T14:37:07Z</time>
      </trkpt>
      <trkpt lat="43.73955" lon="7.27737">
        <ele>273</ele>
        <time>2010-12-12T14:37:09Z</time>
      </trkpt>
      <trkpt lat="43.73872" lon="7.27688">
        <ele>279</ele>
        <time>2010-12-12T14:37:48Z</time>
      </trkpt>
      <trkpt lat="43.73837" lon="7.27666">
        <ele>281</ele>
        <time>2010-12-12T14:38:03Z</time>
      </trkpt>
      <trkpt lat="43.73891" lon="7.27568">
        <ele>290</ele>
        <time>2010-12-12T14:38:46Z</time>
      </trkpt>
      <trkpt lat="43.73859" lon="7.27494">
        <ele>295</ele>
        <time>2010-12-12T14:39:10Z</time>
      </trkpt>
      <trkpt lat="43.73847" lon="7.2737">
        <ele>304</ele>
        <time>2010-12-12T14:40:01Z</time>
      </trkpt>
      <trkpt lat="43.73891" lon="7.27312">
        <ele>305</ele>
        <time>2010-12-12T14:40:27Z</time>
      </trkpt>
      <trkpt lat="43.73888" lon="7.27438">
        <ele>307</ele>
        <time>2010-12-12T14:41:04Z</time>
      </trkpt>
      <trkpt lat="43.73911" lon="7.27457">
        <ele>307</ele>
        <time>2010-12-12T14:41:13Z</time>
      </trkpt>
      <trkpt lat="43.73996" lon="7.27505">
        <ele>312</ele>
        <time>2010-12-12T14:41:50Z</time>
      </trkpt>
      <trkpt lat="43.74014" lon="7.27501">
        <ele>312</ele>
        <time>2010-12-12T14:41:57Z</time>
      </trkpt>
      <trkpt lat="43.74099" lon="7.27458">
        <ele>321</ele>
        <time>2010-12-12T14:42:40Z</time>
      </trkpt>
      <trkpt lat="43.7417" lon="7.27427">
        <ele>329</ele>
        <time>2010-12-12T14:43:02Z</time>
      </trkpt>
      <trkpt lat="43.74251" lon="7.27369">
        <ele>337</ele>
        <time>2010-12-12T14:43:39Z</time>
      </trkpt>
      <trkpt lat="43.74315" lon="7.27279">
        <ele>342</ele>
        <time>2010-12-12T14:44:14Z</time>
      </trkpt>
      <trkpt lat="43.74368" lon="7.27176">
        <ele>347</ele>
        <time>2010-12-12T14:44:47Z</time>
      </trkpt>
      <trkpt lat="43.74376" lon="7.27151">
        <ele>348</ele>
        <time>2010-12-12T14:44:55Z</time>
      </trkpt>
      <trkpt lat="43.74402" lon="7.27031">
        <ele>357</ele>
        <time>2010-12-12T14:45:29Z</time>
      </trkpt>
      <trkpt lat="43.74404" lon="7.27021">
        <ele>358</ele>
        <time>2010-12-12T14:45:32Z</time>
      </trkpt>
      <trkpt lat="43.74421" lon="7.26896">
        <ele>365</ele>
        <time>2010-12-12T14:46:09Z</time>
      </trkpt>
      <trkpt lat="43.74423" lon="7.26883">
        <ele>366</ele>
        <time>2010-12-12T14:46:12Z</time>
      </trkpt>
      <trkpt lat="43.74437" lon="7.26758">
        <ele>370</ele>
        <time>2010-12-12T14:46:39Z</time>
      </trkpt>
      <trkpt lat="43.74405" lon="7.26637">
        <ele>374</ele>
        <time>2010-12-12T14:47:02Z</time>
      </trkpt>
      <trkpt lat="43.74383" lon="7.26514">
        <ele>375</ele>
        <time>2010-12-12T14:47:20Z</time>
      </trkpt>
      <trkpt lat="43.7436" lon="7.26389">
        <ele>376</ele>
        <time>2010-12-12T14:47:36Z</time>
      </trkpt>
      <trkpt lat="43.74359" lon="7.26383">
        <ele>376</ele>
        <time>2010-12-12T14:47:36Z</time>
      </trkpt>
      <trkpt lat="43.7445" lon="7.26351">
        <ele>377</ele>
        <time>2010-12-12T14:47:57Z</time>
      </trkpt>
      <trkpt lat="43.74539" lon="7.26373">
        <ele>372</ele>
        <time>2010-12-12T14:48:10Z</time>
      </trkpt>
      <trkpt lat="43.74569" lon="7.26381">
        <ele>372</ele>
        <time>2010-12-12T14:48:14Z</time>
      </trkpt>
      <trkpt lat="43.74633" lon="7.26377">
        <ele>370</ele>
        <time>2010-12-12T14:48:24Z</time>
      </trkpt>
      <trkpt lat="43.74723" lon="7.26381">
        <ele>368</ele>
        <time>2010-12-12T14:48:43Z</time>
      </trkpt>
      <trkpt lat="43.74777" lon="7.26386">
        <ele>369</ele>
        <time>2010-12-12T14:48:54Z</time>
      </trkpt>
      <trkpt lat="43.74864" lon="7.26421">
        <ele>371</ele>
        <time>2010-12-12T14:49:14Z</time>
      </trkpt>
      <trkpt lat="43.74878" lon="7.26423">
        <ele>371</ele>
        <time>2010-12-12T14:49:17Z</time>
      </trkpt>
      <trkpt lat="43.7495" lon="7.26501">
        <ele>371</ele>
        <time>2010-12-12T14:49:35Z</time>
      </trkpt>
      <trkpt lat="43.75039" lon="7.26535">
        <ele>371</ele>
        <time>2010-12-12T14:49:50Z</time>
      </trkpt>
      <trkpt lat="43.75132" lon="7.26559">
        <ele>368</ele>
        <time>2010-12-12T14:50:04Z</time>
      </trkpt>
      <trkpt lat="43.75173" lon="7.26604">
        <ele>366</ele>
        <time>2010-12-12T14:50:12Z</time>
      </trkpt>
      <trkpt lat="43.75206" lon="7.26724">
        <ele>365</ele>
        <time>2010-12-12T14:50:26Z</time>
      </trkpt>
      <trkpt lat="43.75267" lon="7.26632">
        <ele>357</ele>
        <time>2010-12-12T14:50:55Z</time>
      </trkpt>
      <trkpt lat="43.75285" lon="7.26591">
        <ele>355</ele>
        <time>2010-12-12T14:51:08Z</time>
      </trkpt>
      <trkpt lat="43.75339" lon="7.26488">
        <ele>358</ele>
        <time>2010-12-12T14:51:51Z</time>
      </trkpt>
      <trkpt lat="43.7542" lon="7.26433">
        <ele>364</ele>
        <time>2010-12-12T14:52:37Z</time>
      </trkpt>
      <trkpt lat="43.75495" lon="7.26372">
        <ele>371</ele>
        <time>2010-12-12T14:53:21Z</time>
      </trkpt>
      <trkpt lat="43.75546" lon="7.26269">
        <ele>375</ele>
        <time>2010-12-12T14:53:51Z</time>
      </trkpt>
      <trkpt lat="43.75549" lon="7.26265">
        <ele>375</ele>
        <time>2010-12-12T14:53:53Z</time>
      </trkpt>
      <trkpt lat="43.75628" lon="7.26201">
        <ele>379</ele>
        <time>2010-12-12T14:54:32Z</time>
      </trkpt>
      <trkpt lat="43.75657" lon="7.26183">
        <ele>381</ele>
        <time>2010-12-12T14:54:42Z</time>
      </trkpt>
      <trkpt lat="43.75743" lon="7.26143">
        <ele>386</ele>
        <time>2010-12-12T14:55:12Z</time>
      </trkpt>
      <trkpt lat="43.7581" lon="7.26093">
        <ele>391</ele>
        <time>2010-12-12T14:55:45Z</time>
      </trkpt>
      <trkpt lat="43.75898" lon="7.26058">
        <ele>395</ele>
        <time>2010-12-12T14:56:22Z</time>
      </trkpt>
      <trkpt lat="43.75943" lon="7.26038">
        <ele>398</ele>
        <time>2010-12-12T14:56:44Z</time>
      </trkpt>
      <trkpt lat="43.76033" lon="7.26014">
        <ele>405</ele>
        <time>2010-12-12T14:57:28Z</time>
      </trkpt>
      <trkpt lat="43.76046" lon="7.26006">
        <ele>406</ele>
        <time>2010-12-12T14:57:37Z</time>
      </trkpt>
      <trkpt lat="43.76136" lon="7.26016">
        <ele>417</ele>
        <time>2010-12-12T14:58:40Z</time>
      </trkpt>
      <trkpt lat="43.76218" lon="7.2607">
        <ele>431</ele>
        <time>2010-12-12T14:59:50Z</time>
      </trkpt>
      <trkpt lat="43.76245" lon="7.26095">
        <ele>434</ele>
        <time>2010-12-12T15:00:12Z</time>
      </trkpt>
      <trkpt lat="43.76308" lon="7.26184">
        <ele>444</ele>
        <time>2010-12-12T15:01:09Z</time>
      </trkpt>
      <trkpt lat="43.76328" lon="7.26228">
        <ele>449</ele>
        <time>2010-12-12T15:01:36Z</time>
      </trkpt>
      <trkpt lat="43.76413" lon="7.26271">
        <ele>463</ele>
        <time>2010-12-12T15:02:51Z</time>
      </trkpt>
      <trkpt lat="43.76418" lon="7.26279">
        <ele>464</ele>
        <time>2010-12-12T15:02:55Z</time>
      </trkpt>
      <trkpt lat="43.76361" lon="7.26375">
        <ele>474</ele>
        <time>2010-12-12T15:03:58Z</time>
      </trkpt>
      <trkpt lat="43.76355" lon="7.26382">
        <ele>475</ele>
        <time>2010-12-12T15:04:02Z</time>
      </trkpt>
      <trkpt lat="43.76439" lon="7.26333">
        <ele>494</ele>
        <time>2010-12-12T15:05:18Z</time>
      </trkpt>
      <trkpt lat="43.76516" lon="7.26265">
        <ele>504</ele>
        <time>2010-12-12T15:06:08Z</time>
      </trkpt>
      <trkpt lat="43.7648" lon="7.2615">
        <ele>509</ele>
        <time>2010-12-12T15:07:17Z</time>
      </trkpt>
      <trkpt lat="43.76479" lon="7.26146">
        <ele>509</ele>
        <time>2010-12-12T15:07:19Z</time>
      </trkpt>
      <trkpt lat="43.76568" lon="7.26165">
        <ele>522</ele>
        <time>2010-12-12T15:09:15Z</time>
      </trkpt>
      <trkpt lat="43.76572" lon="7.26167">
        <ele>522</ele>
        <time>2010-12-12T15:09:17Z</time>
      </trkpt>
      <trkpt lat="43.76637" lon="7.26254">
        <ele>528</ele>
        <time>2010-12-12T15:10:11Z</time>
      </trkpt>
      <trkpt lat="43.76577" lon="7.26349">
        <ele>536</ele>
        <time>2010-12-12T15:11:02Z</time>
      </trkpt>
      <trkpt lat="43.76667" lon="7.26327">
        <ele>558</ele>
        <time>2010-12-12T15:13:20Z</time>
      </trkpt>
      <trkpt lat="43.76673" lon="7.2632">
        <ele>558</ele>
        <time>2010-12-12T15:13:24Z</time>
      </trkpt>
      <trkpt lat="43.76744" lon="7.26241">
        <ele>567</ele>
        <time>2010-12-12T15:14:14Z</time>
      </trkpt>
      <trkpt lat="43.76712" lon="7.26124">
        <ele>576</ele>
        <time>2010-12-12T15:15:13Z</time>
      </trkpt>
      <trkpt lat="43.7671" lon="7.26121">
        <ele>576</ele>
        <time>2010-12-12T15:15:14Z</time>
      </trkpt>
      <trkpt lat="43.76797" lon="7.26153">
        <ele>599</ele>
        <time>2010-12-12T15:17:49Z</time>
      </trkpt>
      <trkpt lat="43.76821" lon="7.26273">
        <ele>611</ele>
        <time>2010-12-12T15:19:10Z</time>
      </trkpt>
      <trkpt lat="43.76778" lon="7.26384">
        <ele>620</ele>
        <time>2010-12-12T15:20:07Z</time>
      </trkpt>
      <trkpt lat="43.76775" lon="7.26389">
        <ele>620</ele>
        <time>2010-12-12T15:20:10Z</time>
      </trkpt>
      <trkpt lat="43.76855" lon="7.2633">
        <ele>640</ele>
        <time>2010-12-12T15:22:36Z</time>
      </trkpt>
      <trkpt lat="43.7686" lon="7.26325">
        <ele>641</ele>
        <time>2010-12-12T15:22:40Z</time>
      </trkpt>
      <trkpt lat="43.76927" lon="7.26241">
        <ele>648</ele>
        <time>2010-12-12T15:23:35Z</time>
      </trkpt>
      <trkpt lat="43.76907" lon="7.26364">
        <ele>669</ele>
        <time>2010-12-12T15:26:04Z</time>
      </trkpt>
      <trkpt lat="43.76867" lon="7.26477">
        <ele>678</ele>
        <time>2010-12-12T15:26:59Z</time>
      </trkpt>
      <trkpt lat="43.76949" lon="7.26421">
        <ele>701</ele>
        <time>2010-12-12T15:29:47Z</time>
      </trkpt>
      <trkpt lat="43.77012" lon="7.26331">
        <ele>714</ele>
        <time>2010-12-12T15:30:58Z</time>
      </trkpt>
      <trkpt lat="43.77033" lon="7.26306">
        <ele>718</ele>
        <time>2010-12-12T15:31:17Z</time>
      </trkpt>
      <trkpt lat="43.77105" lon="7.26231">
        <ele>725</ele>
        <time>2010-12-12T15:32:17Z</time>
      </trkpt>
      <trkpt lat="43.77171" lon="7.26144">
        <ele>733</ele>
        <time>2010-12-12T15:33:14Z</time>
      </trkpt>
      <trkpt lat="43.77226" lon="7.26045">
        <ele>743</ele>
        <time>2010-12-12T15:34:11Z</time>
      </trkpt>
      <trkpt lat="43.77191" lon="7.2593">
        <ele>754</ele>
        <time>2010-12-12T15:35:29Z</time>
      </trkpt>
      <trkpt lat="43.771" lon="7.25917">
        <ele>759</ele>
        <time>2010-12-12T15:36:17Z</time>
      </trkpt>
      <trkpt lat="43.7701" lon="7.25928">
        <ele>766</ele>
        <time>2010-12-12T15:37:03Z</time>
      </trkpt>
      <trkpt lat="43.76946" lon="7.25838">
        <ele>772</ele>
        <time>2010-12-12T15:37:53Z</time>
      </trkpt>
      <trkpt lat="43.7689" lon="7.2574">
        <ele>779</ele>
        <time>2010-12-12T15:38:41Z</time>
      </trkpt>
      <trkpt lat="43.76846" lon="7.25628">
        <ele>795</ele>
        <time>2010-12-12T15:44:33Z</time>
      </trkpt>
      <trkpt lat="43.76853" lon="7.25503">
        <ele>795</ele>
        <time>2010-12-12T15:44:53Z</time>
      </trkpt>
      <trkpt lat="43.76858" lon="7.25468">
        <ele>793</ele>
        <time>2010-12-12T15:44:58Z</time>
      </trkpt>
      <trkpt lat="43.76882" lon="7.25346">
        <ele>789</ele>
        <time>2010-12-12T15:45:17Z</time>
      </trkpt>
      <trkpt lat="43.76902" lon="7.25303">
        <ele>786</ele>
        <time>2010-12-12T15:45:25Z</time>
      </trkpt>
      <trkpt lat="43.7693" lon="7.2518">
        <ele>783</ele>
        <time>2010-12-12T15:45:44Z</time>
      </trkpt>
      <trkpt lat="43.76971" lon="7.25083">
        <ele>781</ele>
        <time>2010-12-12T15:45:56Z</time>
      </trkpt>
      <trkpt lat="43.76887" lon="7.25033">
        <ele>760</ele>
        <time>2010-12-12T15:46:35Z</time>
      </trkpt>
      <trkpt lat="43.76833" lon="7.25034">
        <ele>742</ele>
        <time>2010-12-12T15:46:48Z</time>
      </trkpt>
      <trkpt lat="43.76743" lon="7.25044">
        <ele>715</ele>
        <time>2010-12-12T15:47:11Z</time>
      </trkpt>
      <trkpt lat="43.76665" lon="7.25078">
        <ele>706</ele>
        <time>2010-12-12T15:47:41Z</time>
      </trkpt>
      <trkpt lat="43.76576" lon="7.25102">
        <ele>695</ele>
        <time>2010-12-12T15:48:06Z</time>
      </trkpt>
      <trkpt lat="43.76486" lon="7.25117">
        <ele>677</ele>
        <time>2010-12-12T15:49:10Z</time>
      </trkpt>
      <trkpt lat="43.76396" lon="7.25132">
        <ele>683</ele>
        <time>2010-12-12T15:49:39Z</time>
      </trkpt>
      <trkpt lat="43.76313" lon="7.25186">
        <ele>671</ele>
        <time>2010-12-12T15:50:07Z</time>
      </trkpt>
      <trkpt lat="43.76222" lon="7.252">
        <ele>669</ele>
        <time>2010-12-12T15:50:32Z</time>
      </trkpt>
      <trkpt lat="43.76132" lon="7.25242">
        <ele>655</ele>
        <time>2010-12-12T15:51:14Z</time>
      </trkpt>
      <trkpt lat="43.76048" lon="7.25288">
        <ele>642</ele>
        <time>2010-12-12T15:51:41Z</time>
      </trkpt>
      <trkpt lat="43.75965" lon="7.25338">
        <ele>625</ele>
        <time>2010-12-12T15:52:11Z</time>
      </trkpt>
      <trkpt lat="43.7588" lon="7.25386">
        <ele>614</ele>
        <time>2010-12-12T15:52:36Z</time>
      </trkpt>
      <trkpt lat="43.7579" lon="7.25382">
        <ele>602</ele>
        <time>2010-12-12T15:53:11Z</time>
      </trkpt>
      <trkpt lat="43.75739" lon="7.25277">
        <ele>583</ele>
        <time>2010-12-12T15:54:36Z</time>
      </trkpt>
      <trkpt lat="43.75755" lon="7.25203">
        <ele>572</ele>
        <time>2010-12-12T15:55:07Z</time>
      </trkpt>
      <trkpt lat="43.75665" lon="7.25207">
        <ele>550</ele>
        <time>2010-12-12T15:55:42Z</time>
      </trkpt>
      <trkpt lat="43.75667" lon="7.25163">
        <ele>511</ele>
        <time>2010-12-12T15:56:05Z</time>
      </trkpt>
      <trkpt lat="43.75577" lon="7.25168">
        <ele>490</ele>
        <time>2010-12-12T15:56:39Z</time>
      </trkpt>
      <trkpt lat="43.7556" lon="7.25178">
        <ele>487</ele>
        <time>2010-12-12T15:56:46Z</time>
      </trkpt>
      <trkpt lat="43.75473" lon="7.25213">
        <ele>481</ele>
        <time>2010-12-12T15:57:35Z</time>
      </trkpt>
      <trkpt lat="43.75386" lon="7.25258">
        <ele>471</ele>
        <time>2010-12-12T15:58:04Z</time>
      </trkpt>
      <trkpt lat="43.75298" lon="7.25294">
        <ele>464</ele>
        <time>2010-12-12T15:58:28Z</time>
      </trkpt>
      <trkpt lat="43.75211" lon="7.25333">
        <ele>468</ele>
        <time>2010-12-12T15:58:59Z</time>
      </trkpt>
      <trkpt lat="43.75134" lon="7.25405">
        <ele>467</ele>
        <time>2010-12-12T15:59:21Z</time>
      </trkpt>
      <trkpt lat="43.75083" lon="7.25509">
        <ele>464</ele>
        <time>2010-12-12T15:59:43Z</time>
      </trkpt>
      <trkpt lat="43.74993" lon="7.25535">
        <ele>463</ele>
        <time>2010-12-12T16:00:10Z</time>
      </trkpt>
      <trkpt lat="43.74961" lon="7.25542">
        <ele>457</ele>
        <time>2010-12-12T16:00:20Z</time>
      </trkpt>
      <trkpt lat="43.74869" lon="7.25556">
        <ele>457</ele>
        <time>2010-12-12T16:00:52Z</time>
      </trkpt>
      <trkpt lat="43.74823" lon="7.25563">
        <ele>453</ele>
        <time>2010-12-12T16:01:04Z</time>
      </trkpt>
      <trkpt lat="43.74731" lon="7.2557">
        <ele>449</ele>
        <time>2010-12-12T16:01:29Z</time>
      </trkpt>
      <trkpt lat="43.74696" lon="7.25589">
        <ele>444</ele>
        <time>2010-12-12T16:01:39Z</time>
      </trkpt>
      <trkpt lat="43.74606" lon="7.25615">
        <ele>440</ele>
        <time>2010-12-12T16:02:09Z</time>
      </trkpt>
      <trkpt lat="43.74514" lon="7.256">
        <ele>439</ele>
        <time>2010-12-12T16:02:38Z</time>
      </trkpt>
      <trkpt lat="43.74425" lon="7.25625">
        <ele>438</ele>
        <time>2010-12-12T16:03:02Z</time>
      </trkpt>
      <trkpt lat="43.74423" lon="7.25626">
        <ele>437</ele>
        <time>2010-12-12T16:03:03Z</time>
      </trkpt>
      <trkpt lat="43.74332" lon="7.25609">
        <ele>434</ele>
        <time>2010-12-12T16:03:33Z</time>
      </trkpt>
      <trkpt lat="43.74243" lon="7.25646">
        <ele>432</ele>
        <time>2010-12-12T16:03:59Z</time>
      </trkpt>
      <trkpt lat="43.74197" lon="7.257">
        <ele>430</ele>
        <time>2010-12-12T16:04:11Z</time>
      </trkpt>
      <trkpt lat="43.74216" lon="7.25824">
        <ele>423</ele>
        <time>2010-12-12T16:04:52Z</time>
      </trkpt>
      <trkpt lat="43.74273" lon="7.25889">
        <ele>417</ele>
        <time>2010-12-12T16:05:03Z</time>
      </trkpt>
      <trkpt lat="43.74292" lon="7.26012">
        <ele>414</ele>
        <time>2010-12-12T16:05:17Z</time>
      </trkpt>
      <trkpt lat="43.74333" lon="7.2613">
        <ele>404</ele>
        <time>2010-12-12T16:05:31Z</time>
      </trkpt>
      <trkpt lat="43.74371" lon="7.2625">
        <ele>398</ele>
        <time>2010-12-12T16:05:43Z</time>
      </trkpt>
      <trkpt lat="43.74339" lon="7.26366">
        <ele>396</ele>
        <time>2010-12-12T16:06:13Z</time>
      </trkpt>
      <trkpt lat="43.74339" lon="7.26366">
        <ele>396</ele>
        <time>2010-12-12T16:06:15Z</time>
      </trkpt>
      <trkpt lat="43.74344" lon="7.26497">
        <ele>400</ele>
        <time>2010-12-12T16:06:29Z</time>
      </trkpt>
      <trkpt lat="43.74346" lon="7.26504">
        <ele>400</ele>
        <time>2010-12-12T16:06:29Z</time>
      </trkpt>
      <trkpt lat="43.7437" lon="7.26628">
        <ele>407</ele>
        <time>2010-12-12T16:06:45Z</time>
      </trkpt>
      <trkpt lat="43.74413" lon="7.26733">
        <ele>396</ele>
        <time>2010-12-12T16:06:57Z</time>
      </trkpt>
      <trkpt lat="43.74402" lon="7.2686">
        <ele>386</ele>
        <time>2010-12-12T16:07:12Z</time>
      </trkpt>
      <trkpt lat="43.744" lon="7.26895">
        <ele>384</ele>
        <time>2010-12-12T16:07:15Z</time>
      </trkpt>
      <trkpt lat="43.74398" lon="7.26908">
        <ele>384</ele>
        <time>2010-12-12T16:07:17Z</time>
      </trkpt>
      <trkpt lat="43.74377" lon="7.27034">
        <ele>383</ele>
        <time>2010-12-12T16:07:31Z</time>
      </trkpt>
      <trkpt lat="43.74349" lon="7.27155">
        <ele>385</ele>
        <time>2010-12-12T16:07:40Z</time>
      </trkpt>
      <trkpt lat="43.7429" lon="7.27255">
        <ele>386</ele>
        <time>2010-12-12T16:07:49Z</time>
      </trkpt>
      <trkpt lat="43.74228" lon="7.27347">
        <ele>389</ele>
        <time>2010-12-12T16:07:58Z</time>
      </trkpt>
      <trkpt lat="43.74147" lon="7.27406">
        <ele>391</ele>
        <time>2010-12-12T16:08:07Z</time>
      </trkpt>
      <trkpt lat="43.74057" lon="7.27446">
        <ele>387</ele>
        <time>2010-12-12T16:08:16Z</time>
      </trkpt>
      <trkpt lat="43.73965" lon="7.27465">
        <ele>384</ele>
        <time>2010-12-12T16:08:25Z</time>
      </trkpt>
      <trkpt lat="43.73878" lon="7.27415">
        <ele>368</ele>
        <time>2010-12-12T16:08:36Z</time>
      </trkpt>
      <trkpt lat="43.73883" lon="7.27289">
        <ele>349</ele>
        <time>2010-12-12T16:08:50Z</time>
      </trkpt>
      <trkpt lat="43.73832" lon="7.27362">
        <ele>331</ele>
        <time>2010-12-12T16:09:05Z</time>
      </trkpt>
      <trkpt lat="43.73855" lon="7.27489">
        <ele>322</ele>
        <time>2010-12-12T16:09:19Z</time>
      </trkpt>
      <trkpt lat="43.73868" lon="7.27613">
        <ele>307</ele>
        <time>2010-12-12T16:09:31Z</time>
      </trkpt>
      <trkpt lat="43.73866" lon="7.27696">
        <ele>305</ele>
        <time>2010-12-12T16:09:41Z</time>
      </trkpt>
      <trkpt lat="43.7382" lon="7.27808">
        <ele>289</ele>
        <time>2010-12-12T16:10:07Z</time>
      </trkpt>
      <trkpt lat="43.73731" lon="7.2785">
        <ele>286</ele>
        <time>2010-12-12T16:10:14Z</time>
      </trkpt>
      <trkpt lat="43.73672" lon="7.27885">
        <ele>283</ele>
        <time>2010-12-12T16:10:18Z</time>
      </trkpt>
      <trkpt lat="43.73577" lon="7.27898">
        <ele>278</ele>
        <time>2010-12-12T16:10:30Z</time>
      </trkpt>
      <trkpt lat="43.7357" lon="7.27895">
        <ele>277</ele>
        <time>2010-12-12T16:10:31Z</time>
      </trkpt>
      <trkpt lat="43.73483" lon="7.27843">
        <ele>273</ele>
        <time>2010-12-12T16:10:40Z</time>
      </trkpt>
      <trkpt lat="43.73444" lon="7.27818">
        <ele>270</ele>
        <time>2010-12-12T16:10:43Z</time>
      </trkpt>
      <trkpt lat="43.73358" lon="7.27759">
        <ele>256</ele>
        <time>2010-12-12T16:10:53Z</time>
      </trkpt>
      <trkpt lat="43.73349" lon="7.27742">
        <ele>254</ele>
        <time>2010-12-12T16:10:55Z</time>
      </trkpt>
      <trkpt lat="43.73313" lon="7.27628">
        <ele>242</ele>
        <time>2010-12-12T16:11:04Z</time>
      </trkpt>
      <trkpt lat="43.73227" lon="7.27572">
        <ele>231</ele>
        <time>2010-12-12T16:11:14Z</time>
      </trkpt>
      <trkpt lat="43.732" lon="7.27558">
        <ele>230</ele>
        <time>2010-12-12T16:11:17Z</time>
      </trkpt>
      <trkpt lat="43.73109" lon="7.27543">
        <ele>227</ele>
        <time>2010-12-12T16:11:27Z</time>
      </trkpt>
      <trkpt lat="43.73019" lon="7.2759">
        <ele>225</ele>
        <time>2010-12-12T16:11:38Z</time>
      </trkpt>
      <trkpt lat="43.72984" lon="7.27631">
        <ele>221</ele>
        <time>2010-12-12T16:11:47Z</time>
      </trkpt>
      <trkpt lat="43.72946" lon="7.27746">
        <ele>223</ele>
        <time>2010-12-12T16:12:14Z</time>
      </trkpt>
      <trkpt lat="43.7295" lon="7.27793">
        <ele>222</ele>
        <time>2010-12-12T16:12:31Z</time>
      </trkpt>
    </trkseg>
  </trk>
</gpx>